Time;durP1;ratioP1;P1;durP2;ratioP2;P2;SDS_P1;SDS_P2;PMS_P1;PMS_P2;Temp;Humidity;BMP_temperature;BMP_pressure;BME280_temperature;BME280_humidity;BME280_pressure;Samples;Min_cycle;Max_cycle;Signal;HPM_P1;HPM_P2
2022/09/29 00:22:49;;;;;;;;;;;21.20;86.50;;;;;;5177890;23;19925;-74
2022/09/29 00:25:15;;;;;;;;;;;21.20;86.50;;;;;;5035455;28;19925;-74
2022/09/29 00:27:42;;;;;;;;;;;21.20;86.50;;;;;;5035338;28;19979;-74
2022/09/29 00:30:09;;;;;;;;;;;21.20;86.50;;;;;;5035254;28;20023;-74
2022/09/29 00:32:36;;;;;;;;;;;21.20;86.50;;;;;;5034847;28;20007;-73
2022/09/29 00:35:03;;;;;;;;;;;21.20;86.50;;;;;;5035965;28;19992;-77
2022/09/29 00:37:29;;;;;;;;;;;21.20;86.50;;;;;;5035728;28;19975;-77
2022/09/29 00:39:57;;;;;;;;;;;21.20;86.50;;;;;;5035548;28;20027;-77
2022/09/29 00:42:24;;;;;;;;;;;21.20;86.50;;;;;;5035261;28;19956;-77
2022/09/29 00:45:06;;;;;;;;;;;21.20;86.50;;;;;;5036123;28;20012;-76
2022/09/29 00:47:34;;;;;;;;;;;21.20;86.50;;;;;;5033375;28;19964;-76
2022/09/29 00:50:02;;;;;;;;;;;21.20;86.50;;;;;;5034880;28;20019;-76
2022/09/29 00:52:31;;;;;;;;;;;21.20;86.50;;;;;;5034449;28;19929;-76
2022/09/29 00:55:02;;;;;;;;;;;21.20;86.50;;;;;;5034984;28;20016;-76
2022/09/29 00:57:31;;;;;;;;;;;21.20;86.50;;;;;;5034781;28;19980;-76
2022/09/29 01:00:01;;;;;;;;;;;21.20;86.50;;;;;;5034838;28;20020;-76
2022/09/29 01:02:30;;;;;;;;;;;21.20;86.60;;;;;;5034557;28;20023;-76
2022/09/29 01:04:56;;;;;;;;;;;21.20;87.00;;;;;;5034292;28;19925;-76
2022/09/29 01:07:24;;;;;;;;;;;21.20;87.10;;;;;;5034632;28;20351;-76
2022/09/29 01:09:52;;;;;;;;;;;21.20;87.10;;;;;;5034516;28;19925;-76
2022/09/29 01:12:20;;;;;;;;;;;21.20;87.10;;;;;;5034428;28;19999;-76
2022/09/29 01:14:48;;;;;;;;;;;21.20;87.20;;;;;;5034429;28;19931;-76
2022/09/29 01:17:14;;;;;;;;;;;21.20;87.40;;;;;;5034478;28;20020;-76
2022/09/29 01:19:47;;;;;;;;;;;21.20;87.50;;;;;;5034094;28;20028;-76
2022/09/29 01:22:19;;;;;;;;;;;21.20;87.50;;;;;;5034005;28;20071;-76
2022/09/29 03:54:23;;;;;;;;;;;21.10;91.20;;;;;;6065718;23;21016;-73
2022/09/29 03:56:51;;;;;;;;;;;21.10;91.30;;;;;;5035818;28;19925;-72
2022/09/29 03:59:18;;;;;;;;;;;21.10;91.40;;;;;;5035902;28;19979;-72
2022/09/29 04:01:44;;;;;;;;;;;21.10;91.40;;;;;;5035462;28;20343;-74
2022/09/29 04:04:11;;;;;;;;;;;21.10;91.50;;;;;;5035606;28;19925;-75
2022/09/29 04:06:38;;;;;;;;;;;21.10;91.50;;;;;;5035672;28;19932;-75
2022/09/29 04:09:04;;;;;;;;;;;21.10;91.60;;;;;;5035279;28;19948;-75
2022/09/29 04:11:31;;;;;;;;;;;21.10;91.60;;;;;;5060951;23;19979;-78
2022/09/29 04:13:59;;;;;;;;;;;21.10;91.70;;;;;;5035413;28;19925;-77
2022/09/29 04:16:27;;;;;;;;;;;21.10;91.70;;;;;;5036631;28;19972;-79
2022/09/29 04:18:54;;;;;;;;;;;21.10;91.70;;;;;;5041038;28;19933;-80
2022/09/29 04:21:21;;;;;;;;;;;21.10;91.80;;;;;;5040249;28;20374;-80
2022/09/29 04:23:48;;;;;;;;;;;21.10;91.90;;;;;;5038412;28;20348;-78
2022/09/29 04:26:15;;;;;;;;;;;21.10;92.30;;;;;;5035849;28;19925;-78
2022/09/29 04:28:42;;;;;;;;;;;21.10;92.00;;;;;;5035692;28;19932;-78
2022/09/29 04:31:10;;;;;;;;;;;21.10;92.00;;;;;;5035832;28;19975;-77
2022/09/29 04:33:38;;;;;;;;;;;21.10;92.10;;;;;;5036254;28;20384;-78
2022/09/29 04:36:05;;;;;;;;;;;21.10;92.10;;;;;;5036992;28;19960;-79
2022/09/29 04:38:31;;;;;;;;;;;21.10;92.20;;;;;;5036443;28;19925;-79
2022/09/29 04:40:58;;;;;;;;;;;21.10;92.20;;;;;;5036045;28;19971;-78
2022/09/29 04:43:25;;;;;;;;;;;21.10;92.30;;;;;;5036907;28;19928;-80
2022/09/29 04:45:52;;;;;;;;;;;21.10;92.40;;;;;;5037014;28;19925;-80
2022/09/29 04:48:20;;;;;;;;;;;21.10;92.50;;;;;;5038064;28;19925;-79
2022/09/29 04:50:47;;;;;;;;;;;21.10;92.60;;;;;;5036938;28;19971;-80
2022/09/29 04:53:14;;;;;;;;;;;21.10;92.60;;;;;;5037454;28;19925;-81
2022/09/29 04:55:41;;;;;;;;;;;21.10;92.70;;;;;;5037546;28;19991;-81
2022/09/29 04:58:07;;;;;;;;;;;21.10;92.70;;;;;;5038419;28;20289;-79
2022/09/29 05:00:34;;;;;;;;;;;21.10;92.70;;;;;;5037341;28;20442;-80
2022/09/29 05:03:02;;;;;;;;;;;21.10;92.60;;;;;;5037873;28;19929;-79
2022/09/29 05:05:30;;;;;;;;;;;21.10;92.50;;;;;;5037741;28;19971;-81
2022/09/29 05:07:58;;;;;;;;;;;21.10;92.50;;;;;;5038104;28;19925;-80
2022/09/29 05:10:25;;;;;;;;;;;21.10;92.50;;;;;;5037705;28;20011;-81
2022/09/29 05:12:52;;;;;;;;;;;21.10;92.60;;;;;;5038942;28;19925;-81
2022/09/29 05:15:19;;;;;;;;;;;21.10;92.60;;;;;;5037678;28;19956;-80
2022/09/29 10:30:46;;;;;;;;;;;21.00;88.80;;;;;;5934378;23;19956;-81
2022/09/29 10:33:15;;;;;;;;;;;21.10;88.90;;;;;;5044675;28;19984;-81
2022/09/29 10:35:43;;;;;;;;;;;21.10;88.60;;;;;;5042166;28;19929;-80
2022/09/29 10:38:16;;;;;;;;;;;21.00;88.10;;;;;;5041427;28;19925;-80
2022/09/29 10:40:53;;;;;;;;;;;21.00;87.70;;;;;;5040465;28;19925;-78
2022/09/29 10:43:23;;;;;;;;;;;21.00;87.20;;;;;;5063225;23;19924;-78
2022/09/29 10:45:57;;;;;;;;;;;20.90;86.80;;;;;;5038932;28;19933;-78
2022/09/29 10:48:24;;;;;;;;;;;20.90;86.50;;;;;;5040095;28;19932;-81
2022/09/29 10:50:52;;;;;;;;;;;20.90;86.20;;;;;;5039838;28;19926;-81
2022/09/29 10:53:25;;;;;;;;;;;20.90;86.20;;;;;;5037219;28;19952;-77
2022/09/29 10:55:53;;;;;;;;;;;20.90;86.20;;;;;;5037068;28;19948;-75
2022/09/29 10:58:24;;;;;;;;;;;20.90;86.20;;;;;;5037010;28;19925;-75
2022/09/29 11:01:03;;;;;;;;;;;21.00;86.00;;;;;;5036966;28;19979;-75
2022/09/29 11:03:29;;;;;;;;;;;20.90;85.80;;;;;;5036772;28;19925;-78
2022/09/29 11:06:01;;;;;;;;;;;21.00;85.60;;;;;;5037212;28;20384;-77
2022/09/29 11:08:28;;;;;;;;;;;21.00;85.50;;;;;;5038460;28;19925;-77
2022/09/29 11:11:03;;;;;;;;;;;21.00;85.40;;;;;;5038210;28;19925;-75
2022/09/29 11:13:35;;;;;;;;;;;21.00;85.30;;;;;;5041722;28;19925;-75
2022/09/29 11:16:15;;;;;;;;;;;21.00;85.30;;;;;;5042366;28;19929;-76
2022/09/29 11:18:43;;;;;;;;;;;21.10;85.30;;;;;;5042187;28;19937;-76
2022/09/29 11:21:37;;;;;;;;;;;21.10;85.20;;;;;;5041734;28;19925;-75
2022/09/29 11:24:07;;;;;;;;;;;21.10;85.20;;;;;;5017739;28;19926;-76
2022/09/29 11:26:36;;;;;;;;;;;21.10;85.30;;;;;;5041737;28;20303;-75
2022/09/29 11:29:21;;;;;;;;;;;21.20;85.50;;;;;;5041339;28;19925;-75
2022/09/29 11:31:58;;;;;;;;;;;21.20;85.60;;;;;;5041714;28;20312;-75
2022/09/29 11:34:36;;;;;;;;;;;21.30;85.80;;;;;;5041725;28;19989;-76
2022/09/29 11:37:07;;;;;;;;;;;21.30;86.10;;;;;;5043793;28;19964;-81
2022/09/29 11:39:39;;;;;;;;;;;21.30;86.30;;;;;;5045134;28;19925;-81
2022/09/29 11:42:11;;;;;;;;;;;21.40;86.70;;;;;;5041314;28;19975;-80
2022/09/29 11:44:49;;;;;;;;;;;21.40;86.70;;;;;;5043000;28;20391;-81
2022/09/29 11:47:26;;;;;;;;;;;21.40;86.70;;;;;;5043597;28;20052;-82
2022/09/29 11:50:03;;;;;;;;;;;21.50;87.20;;;;;;5044178;28;19929;-82
2022/09/29 11:52:48;;;;;;;;;;;21.50;87.60;;;;;;5037963;28;19960;-81
2022/09/29 11:55:25;;;;;;;;;;;21.60;88.40;;;;;;5030906;28;20446;-80
2022/09/29 11:57:57;;;;;;;;;;;21.60;88.90;;;;;;5037169;28;19977;-81
2022/09/29 12:00:33;;;;;;;;;;;21.70;89.70;;;;;;5037348;28;19951;-81
2022/09/29 12:03:14;;;;;;;;;;;21.70;90.00;;;;;;5037617;28;19928;-80
2022/09/29 12:05:48;;;;;;;;;;;21.80;90.30;;;;;;5037603;28;20411;-81
2022/09/29 12:08:20;;;;;;;;;;;21.80;90.40;;;;;;5037414;28;20377;-80
2022/09/29 12:10:53;;;;;;;;;;;21.80;90.60;;;;;;5037497;28;20369;-81
2022/09/29 12:13:23;;;;;;;;;;;21.80;90.80;;;;;;5037522;28;19925;-79
2022/09/29 12:15:52;;;;;;;;;;;21.80;90.90;;;;;;5037346;28;19995;-80
2022/09/29 12:18:22;;;;;;;;;;;21.90;91.00;;;;;;5037534;28;19926;-80
2022/09/29 12:20:51;;;;;;;;;;;21.90;91.10;;;;;;5037809;28;19925;-80
2022/09/29 12:23:19;;;;;;;;;;;21.90;91.10;;;;;;5036746;28;20316;-81
2022/09/29 12:25:51;;;;;;;;;;;21.80;91.10;;;;;;5037185;28;19955;-80
2022/09/29 12:28:20;;;;;;;;;;;21.80;91.10;;;;;;5037139;28;19964;-80
2022/09/29 12:30:50;;;;;;;;;;;21.80;91.10;;;;;;5036801;28;19925;-79
2022/09/29 12:33:20;;;;;;;;;;;21.80;91.20;;;;;;5036806;28;19925;-80
2022/09/29 12:35:50;;;;;;;;;;;21.80;91.20;;;;;;5036898;28;19925;-80
2022/09/29 12:38:19;;;;;;;;;;;21.80;91.20;;;;;;5036946;28;19965;-80
2022/09/29 12:40:49;;;;;;;;;;;21.80;91.20;;;;;;5036477;28;20342;-80
2022/09/29 12:43:18;;;;;;;;;;;21.80;91.20;;;;;;5036695;28;19972;-80
2022/09/29 12:45:51;;;;;;;;;;;21.80;91.20;;;;;;5037145;28;20331;-82
2022/09/29 12:48:33;;;;;;;;;;;21.80;91.20;;;;;;5036267;28;20019;-81
2022/09/29 12:51:03;;;;;;;;;;;21.80;91.20;;;;;;5036638;28;20015;-80
2022/09/29 12:53:33;;;;;;;;;;;21.80;91.20;;;;;;5036629;28;20363;-80
2022/09/29 12:56:01;;;;;;;;;;;21.80;91.20;;;;;;5036639;28;19925;-80
2022/09/29 12:58:32;;;;;;;;;;;21.80;91.10;;;;;;5037976;28;20347;-80
2022/09/29 13:01:03;;;;;;;;;;;21.80;91.10;;;;;;5036619;28;20289;-81
2022/09/29 13:03:39;;;;;;;;;;;21.80;91.00;;;;;;5036956;28;19976;-80
2022/09/29 13:06:33;;;;;;;;;;;21.80;91.00;;;;;;5036752;28;19925;-80
2022/09/29 13:09:08;;;;;;;;;;;21.70;90.80;;;;;;5012523;28;19932;-79
2022/09/29 13:11:56;;;;;;;;;;;21.70;90.80;;;;;;5036285;28;19929;-79
2022/09/29 13:14:30;;;;;;;;;;;21.70;90.80;;;;;;5033219;28;19971;-79
2022/09/29 13:17:08;;;;;;;;;;;21.70;90.70;;;;;;5036629;28;19925;-81
2022/09/29 13:19:43;;;;;;;;;;;21.70;90.70;;;;;;5037570;28;19925;-81
2022/09/29 13:22:24;;;;;;;;;;;21.70;90.60;;;;;;5036384;28;20423;-82
2022/09/29 13:24:55;;;;;;;;;;;21.70;90.60;;;;;;5035886;28;20343;-82
2022/09/29 13:27:29;;;;;;;;;;;21.70;90.50;;;;;;5036660;28;19978;-81
2022/09/29 13:29:58;;;;;;;;;;;21.70;90.40;;;;;;5036945;28;19969;-81
2022/09/29 13:32:25;;;;;;;;;;;21.70;90.40;;;;;;5035871;28;19925;-81
2022/09/29 13:34:54;;;;;;;;;;;21.60;90.30;;;;;;5036346;28;20339;-81
2022/09/29 13:37:22;;;;;;;;;;;21.60;90.20;;;;;;5036196;28;20351;-81
2022/09/29 13:39:56;;;;;;;;;;;21.60;90.10;;;;;;5035427;28;20300;-81
2022/09/29 13:42:26;;;;;;;;;;;21.60;90.00;;;;;;5036061;28;19925;-81
2022/09/29 13:45:07;;;;;;;;;;;21.50;89.70;;;;;;5035851;28;19925;-81
2022/09/29 13:47:34;;;;;;;;;;;21.50;89.60;;;;;;5035868;28;19929;-81
2022/09/29 13:50:03;;;;;;;;;;;21.50;89.60;;;;;;5036241;28;19925;-81
2022/09/29 13:52:30;;;;;;;;;;;21.50;89.40;;;;;;5035556;28;20444;-81
2022/09/29 13:55:19;;;;;;;;;;;21.50;89.30;;;;;;5035892;28;19932;-82
2022/09/29 13:57:50;;;;;;;;;;;21.50;89.30;;;;;;5035389;28;19925;-82
2022/09/29 14:00:18;;;;;;;;;;;21.50;89.20;;;;;;5036420;28;19925;-82
2022/09/29 14:02:47;;;;;;;;;;;21.40;89.10;;;;;;5036422;28;20381;-82
2022/09/29 14:05:33;;;;;;;;;;;21.40;89.20;;;;;;5035748;28;19979;-82
2022/09/29 14:08:11;;;;;;;;;;;21.40;89.20;;;;;;5035280;28;19980;-82
2022/09/29 14:10:41;;;;;;;;;;;21.40;89.20;;;;;;5035804;28;19979;-82
2022/09/29 14:13:11;;;;;;;;;;;21.40;89.30;;;;;;5046986;28;19925;-82
2022/09/29 14:15:40;;;;;;;;;;;21.40;89.30;;;;;;5041494;28;19925;-82
2022/09/29 14:18:15;;;;;;;;;;;21.40;89.30;;;;;;5039635;28;19925;-79
2022/09/29 14:20:56;;;;;;;;;;;21.50;89.30;;;;;;5039225;28;20308;-80
2022/09/29 14:23:38;;;;;;;;;;;21.40;89.30;;;;;;5034717;28;19925;-77
2022/09/29 14:26:32;;;;;;;;;;;21.40;89.20;;;;;;5033266;28;19987;-77
2022/09/29 14:29:02;;;;;;;;;;;21.40;89.00;;;;;;5033353;28;19976;-76
2022/09/29 14:31:30;;;;;;;;;;;21.40;88.90;;;;;;5038865;28;19980;-76
2022/09/29 14:34:01;;;;;;;;;;;21.40;88.90;;;;;;5039896;28;20499;-76
2022/09/29 14:36:31;;;;;;;;;;;21.40;88.70;;;;;;5039830;28;19972;-76
2022/09/29 14:38:59;;;;;;;;;;;21.40;88.70;;;;;;5040644;28;19925;-76
2022/09/29 14:41:33;;;;;;;;;;;21.30;88.50;;;;;;5039944;28;19925;-76
2022/09/29 14:44:03;;;;;;;;;;;21.30;88.50;;;;;;5039045;28;19932;-75
2022/09/29 14:52:42;;;;;;;;;;;21.30;88.50;;;;;;5040108;28;20015;-76
2022/09/29 14:55:17;;;;;;;;;;;21.30;88.80;;;;;;5040427;28;19924;-77
2022/09/29 14:57:56;;;;;;;;;;;21.30;88.60;;;;;;5039992;28;19925;-75
2022/09/29 15:00:28;;;;;;;;;;;21.30;88.60;;;;;;5040631;28;19925;-76
2022/09/29 15:02:56;;;;;;;;;;;21.30;88.60;;;;;;5041319;28;19929;-75
2022/09/29 15:05:25;;;;;;;;;;;21.30;88.60;;;;;;5041053;28;19925;-76
2022/09/29 15:07:52;;;;;;;;;;;21.30;88.70;;;;;;5043678;28;20007;-75
2022/09/29 15:10:21;;;;;;;;;;;21.30;88.80;;;;;;5044718;28;20331;-75
2022/09/29 15:12:49;;;;;;;;;;;21.30;88.80;;;;;;5042041;28;20031;-75
2022/09/29 15:15:36;;;;;;;;;;;21.30;88.90;;;;;;5043369;28;19967;-75
2022/09/29 15:18:08;;;;;;;;;;;21.30;88.90;;;;;;5043862;28;19925;-78
2022/09/29 15:20:49;;;;;;;;;;;21.30;89.00;;;;;;5043423;28;19929;-78
2022/09/29 15:23:27;;;;;;;;;;;21.30;89.10;;;;;;5043864;28;19925;-77
2022/09/29 15:25:55;;;;;;;;;;;21.30;89.10;;;;;;5041832;28;19925;-77
2022/09/29 15:28:25;;;;;;;;;;;21.30;89.20;;;;;;5040606;28;19925;-77
2022/09/29 15:30:54;;;;;;;;;;;21.30;89.30;;;;;;5040122;28;20008;-78
2022/09/29 15:33:22;;;;;;;;;;;21.30;89.40;;;;;;5039590;28;19960;-78
2022/09/29 15:35:51;;;;;;;;;;;21.30;89.40;;;;;;5040271;28;19957;-79
2022/09/29 15:38:31;;;;;;;;;;;21.30;89.50;;;;;;5039493;28;19925;-79
2022/09/29 15:41:00;;;;;;;;;;;21.30;89.60;;;;;;5040174;28;19925;-79
2022/09/29 15:43:28;;;;;;;;;;;21.30;89.70;;;;;;5039509;28;20016;-84
2022/09/29 15:45:58;;;;;;;;;;;21.30;90.20;;;;;;5039901;28;19951;-82
2022/09/29 15:48:25;;;;;;;;;;;21.30;90.00;;;;;;5039379;28;19980;-83
2022/09/29 15:50:54;;;;;;;;;;;21.30;90.00;;;;;;5038076;28;20403;-85
2022/09/29 15:53:22;;;;;;;;;;;21.30;90.10;;;;;;5038693;28;19932;-85
2022/09/29 15:55:49;;;;;;;;;;;21.30;90.10;;;;;;5039637;28;19931;-84
2022/09/29 15:58:31;;;;;;;;;;;21.30;90.20;;;;;;5039889;28;19925;-84
2022/09/29 16:01:01;;;;;;;;;;;21.30;90.30;;;;;;5039070;28;19929;-84
2022/09/29 16:03:36;;;;;;;;;;;21.30;90.30;;;;;;5039763;28;19932;-85
2022/09/29 16:06:04;;;;;;;;;;;21.30;90.40;;;;;;5041750;28;19929;-85
2022/09/29 16:08:34;;;;;;;;;;;21.30;90.40;;;;;;5040118;28;19929;-83
2022/09/29 16:11:03;;;;;;;;;;;21.30;90.50;;;;;;5040036;28;20340;-83
2022/09/29 16:13:32;;;;;;;;;;;21.30;90.60;;;;;;5045270;28;19925;-83
2022/09/29 16:16:02;;;;;;;;;;;21.30;90.60;;;;;;5043039;28;19925;-84
2022/09/29 16:18:30;;;;;;;;;;;21.30;90.70;;;;;;5039484;28;19925;-84
2022/09/29 16:20:58;;;;;;;;;;;21.30;90.80;;;;;;5039096;28;19925;-85
2022/09/29 16:23:26;;;;;;;;;;;21.30;91.00;;;;;;5037347;28;20044;-85
2022/09/29 16:26:14;;;;;;;;;;;21.40;91.00;;;;;;5036995;28;19971;-85
2022/09/29 16:28:57;;;;;;;;;;;21.40;91.00;;;;;;5035843;28;19931;-85
2022/09/29 16:31:26;;;;;;;;;;;21.40;91.00;;;;;;5040448;28;19925;-83
2022/09/29 16:33:56;;;;;;;;;;;21.40;91.10;;;;;;5039271;28;21510;-84
2022/09/29 16:36:23;;;;;;;;;;;21.40;91.20;;;;;;5039465;28;19960;-82
2022/09/29 16:38:52;;;;;;;;;;;21.40;91.30;;;;;;5039113;28;19925;-81
2022/09/29 16:41:20;;;;;;;;;;;21.40;91.30;;;;;;5039261;28;19925;-82
2022/09/29 16:43:48;;;;;;;;;;;21.40;91.40;;;;;;5039365;28;19947;-81
2022/09/29 16:46:20;;;;;;;;;;;21.40;91.50;;;;;;5039561;28;20276;-82
2022/09/29 16:48:49;;;;;;;;;;;21.40;91.60;;;;;;5039983;28;19925;-81
2022/09/29 16:51:16;;;;;;;;;;;21.40;91.80;;;;;;5040671;28;19951;-80
2022/09/29 16:53:44;;;;;;;;;;;21.50;92.00;;;;;;5038676;28;19967;-80
2022/09/29 16:56:17;;;;;;;;;;;21.50;92.10;;;;;;5038254;28;19925;-80
2022/09/29 16:58:45;;;;;;;;;;;21.50;92.20;;;;;;5038794;28;19932;-77
2022/09/29 17:01:11;;;;;;;;;;;21.60;92.40;;;;;;5036990;28;20265;-78
2022/09/29 17:03:39;;;;;;;;;;;21.60;92.50;;;;;;5036375;28;19975;-78
2022/09/29 17:06:08;;;;;;;;;;;21.60;92.60;;;;;;5036473;28;19980;-77
2022/09/29 17:08:35;;;;;;;;;;;21.60;92.70;;;;;;5035282;28;20395;-77
2022/09/29 17:11:02;;;;;;;;;;;21.60;92.80;;;;;;5040566;28;19948;-78
2022/09/29 17:13:30;;;;;;;;;;;21.70;92.90;;;;;;5040559;28;19961;-77
2022/09/29 17:15:57;;;;;;;;;;;21.70;93.00;;;;;;5034920;28;19979;-78
2022/09/29 17:18:25;;;;;;;;;;;21.70;93.10;;;;;;5034573;28;19932;-77
2022/09/29 17:20:52;;;;;;;;;;;21.70;93.20;;;;;;5034397;28;19979;-80
2022/09/29 17:23:24;;;;;;;;;;;21.80;93.40;;;;;;5038436;28;20331;-79
2022/09/29 17:25:50;;;;;;;;;;;21.80;93.50;;;;;;5039201;28;19957;-81
2022/09/29 17:28:18;;;;;;;;;;;21.80;93.60;;;;;;5040299;28;19925;-83
2022/09/29 17:30:45;;;;;;;;;;;21.90;93.70;;;;;;5038048;28;19928;-84
2022/09/29 17:33:14;;;;;;;;;;;21.90;93.80;;;;;;5039347;28;19929;-79
2022/09/29 17:35:41;;;;;;;;;;;21.90;93.80;;;;;;5038317;28;19987;-78
2022/09/29 17:38:08;;;;;;;;;;;21.90;93.80;;;;;;5036118;28;19928;-77
2022/09/29 17:40:50;;;;;;;;;;;21.90;93.80;;;;;;5038236;28;19976;-80
2022/09/29 17:43:19;;;;;;;;;;;22.00;93.80;;;;;;5039448;28;20332;-77
2022/09/29 17:45:46;;;;;;;;;;;22.00;93.80;;;;;;5039136;28;19932;-79
2022/09/29 17:48:14;;;;;;;;;;;22.00;93.90;;;;;;5039388;28;19933;-82
2022/09/29 17:50:43;;;;;;;;;;;22.00;93.90;;;;;;5036777;28;19956;-80
2022/09/29 17:53:10;;;;;;;;;;;22.10;94.00;;;;;;5037702;28;20290;-80
2022/09/29 17:55:38;;;;;;;;;;;22.10;94.00;;;;;;5038569;28;19929;-79
2022/09/29 17:58:05;;;;;;;;;;;22.10;94.00;;;;;;5037013;28;19925;-79
2022/09/29 18:00:37;;;;;;;;;;;22.10;94.00;;;;;;5037788;28;19925;-79
2022/09/29 18:03:04;;;;;;;;;;;22.10;94.00;;;;;;5036479;28;19925;-79
2022/09/29 18:05:32;;;;;;;;;;;22.20;94.10;;;;;;5037347;28;19972;-79
2022/09/29 18:08:00;;;;;;;;;;;22.10;94.00;;;;;;5037598;28;20363;-79
2022/09/29 18:10:28;;;;;;;;;;;22.20;93.90;;;;;;5037447;28;19929;-79
2022/09/29 18:12:56;;;;;;;;;;;22.20;93.90;;;;;;5038213;28;19925;-79
2022/09/29 18:15:24;;;;;;;;;;;22.20;93.90;;;;;;5035784;28;19925;-77
2022/09/29 18:17:54;;;;;;;;;;;22.20;93.90;;;;;;5035089;28;19926;-77
2022/09/29 18:20:21;;;;;;;;;;;22.20;93.80;;;;;;5034650;28;19979;-77
2022/09/29 18:22:49;;;;;;;;;;;22.20;93.60;;;;;;5035929;28;19979;-77
2022/09/29 18:25:17;;;;;;;;;;;22.10;93.40;;;;;;5037493;28;19956;-77
2022/09/29 18:27:44;;;;;;;;;;;22.10;93.30;;;;;;5034280;28;19947;-77
2022/09/29 18:30:19;;;;;;;;;;;22.10;93.20;;;;;;5034212;28;19964;-77
2022/09/29 18:32:46;;;;;;;;;;;22.10;93.00;;;;;;5036170;28;20397;-77
2022/09/29 18:35:14;;;;;;;;;;;22.10;92.90;;;;;;5035792;28;19948;-77
2022/09/29 18:37:41;;;;;;;;;;;22.10;92.80;;;;;;5035389;28;19925;-77
2022/09/29 18:40:08;;;;;;;;;;;22.10;92.70;;;;;;5035937;28;20351;-77
2022/09/29 18:42:40;;;;;;;;;;;22.00;92.50;;;;;;5037970;28;19979;-77
2022/09/29 18:45:09;;;;;;;;;;;22.00;92.40;;;;;;5039836;28;20012;-76
2022/09/29 18:47:37;;;;;;;;;;;22.00;92.40;;;;;;5040425;28;19926;-78
2022/09/29 18:50:06;;;;;;;;;;;22.00;92.30;;;;;;5040354;28;19925;-76
2022/09/29 18:52:35;;;;;;;;;;;22.00;92.20;;;;;;5040913;28;19968;-76
2022/09/29 18:55:01;;;;;;;;;;;22.00;92.10;;;;;;5039759;28;19957;-76
2022/09/29 18:57:28;;;;;;;;;;;22.00;92.00;;;;;;5038132;28;19967;-77
2022/09/29 18:59:55;;;;;;;;;;;22.00;92.30;;;;;;5036836;28;19955;-77
2022/09/29 19:02:21;;;;;;;;;;;22.00;91.90;;;;;;5037254;28;19961;-78
2022/09/29 19:04:49;;;;;;;;;;;21.90;91.90;;;;;;5036947;28;19947;-76
2022/09/29 19:07:18;;;;;;;;;;;22.00;91.90;;;;;;5036576;28;19983;-76
2022/09/29 19:09:45;;;;;;;;;;;22.00;91.90;;;;;;5036890;28;19929;-78
2022/09/29 19:12:11;;;;;;;;;;;21.90;91.80;;;;;;5036948;28;19964;-77
2022/09/29 19:14:40;;;;;;;;;;;21.90;91.70;;;;;;5036492;28;20359;-76
2022/09/29 19:17:07;;;;;;;;;;;21.90;91.70;;;;;;5036751;28;19932;-76
2022/09/29 19:19:33;;;;;;;;;;;21.90;91.70;;;;;;5036399;28;20384;-76
2022/09/29 19:22:01;;;;;;;;;;;21.90;91.70;;;;;;5036654;28;19975;-76
2022/09/29 19:24:28;;;;;;;;;;;21.90;91.70;;;;;;5036529;28;19976;-76
2022/09/29 19:26:55;;;;;;;;;;;21.90;91.60;;;;;;5036211;28;19983;-76
2022/09/29 19:29:22;;;;;;;;;;;21.90;91.60;;;;;;5036540;28;19925;-76
2022/09/29 19:31:48;;;;;;;;;;;21.90;91.50;;;;;;5036127;28;20381;-76
2022/09/29 19:34:15;;;;;;;;;;;21.80;91.40;;;;;;5036547;28;19925;-76
2022/09/29 19:36:42;;;;;;;;;;;21.80;91.40;;;;;;5036373;28;19987;-76
2022/09/29 19:39:11;;;;;;;;;;;21.80;91.40;;;;;;5036323;28;19968;-76
2022/09/29 19:41:39;;;;;;;;;;;21.80;91.30;;;;;;5036299;28;19936;-76
2022/09/29 19:44:07;;;;;;;;;;;21.80;91.30;;;;;;5035664;28;19925;-76
2022/09/29 19:46:34;;;;;;;;;;;21.80;91.20;;;;;;5036166;28;19955;-76
2022/09/29 19:49:00;;;;;;;;;;;21.80;91.20;;;;;;5036194;28;19979;-76
2022/09/29 19:54:15;;;;;;;;;;;21.80;91.20;;;;;;5035109;28;19967;-76
2022/09/29 19:56:43;;;;;;;;;;;21.70;91.20;;;;;;5036145;28;19929;-76
2022/09/29 19:59:12;;;;;;;;;;;21.70;91.20;;;;;;5035669;28;19975;-76
2022/09/29 20:01:39;;;;;;;;;;;21.70;91.20;;;;;;5036078;28;19933;-77
2022/09/29 20:04:05;;;;;;;;;;;21.70;91.20;;;;;;5036290;28;19925;-78
2022/09/29 20:06:34;;;;;;;;;;;21.70;91.20;;;;;;5037551;28;19925;-80
2022/09/29 20:09:01;;;;;;;;;;;21.70;91.20;;;;;;5039276;28;19926;-79
2022/09/29 20:11:32;;;;;;;;;;;21.70;91.20;;;;;;5038608;28;20024;-79
